sensor_id;sensor_type;location;lat;lon;timestamp;P1;durP1;ratioP1;P2;durP2;ratioP2
15816;SDS011;8009;50.070;8.232;2023-04-30T00:00:50;16.73;;;16.13;;
15816;SDS011;8009;50.070;8.232;2023-04-30T00:13:07;13.87;;;13.37;;
15816;SDS011;8009;50.070;8.232;2023-04-30T00:15:38;14.63;;;14.10;;
15816;SDS011;8009;50.070;8.232;2023-04-30T00:18:06;17.03;;;16.43;;
15816;SDS011;8009;50.070;8.232;2023-04-30T00:20:35;16.47;;;15.87;;
15816;SDS011;8009;50.070;8.232;2023-04-30T00:23:03;17.03;;;16.43;;
15816;SDS011;8009;50.070;8.232;2023-04-30T00:25:31;18.20;;;17.50;;
15816;SDS011;8009;50.070;8.232;2023-04-30T00:28:00;15.33;;;14.73;;
15816;SDS011;8009;50.070;8.232;2023-04-30T00:30:31;17.47;;;16.80;;
15816;SDS011;8009;50.070;8.232;2023-04-30T00:36:10;17.70;;;17.00;;
15816;SDS011;8009;50.070;8.232;2023-04-30T00:41:56;20.13;;;19.33;;
15816;SDS011;8009;50.070;8.232;2023-04-30T00:44:25;16.27;;;15.67;;
15816;SDS011;8009;50.070;8.232;2023-04-30T00:46:55;18.37;;;17.67;;
15816;SDS011;8009;50.070;8.232;2023-04-30T00:52:42;16.57;;;15.97;;
15816;SDS011;8009;50.070;8.232;2023-04-30T01:01:38;16.87;;;16.23;;
15816;SDS011;8009;50.070;8.232;2023-04-30T01:13:26;20.50;;;19.70;;
15816;SDS011;8009;50.070;8.232;2023-04-30T01:16:01;16.07;;;15.47;;
15816;SDS011;8009;50.070;8.232;2023-04-30T01:18:51;15.90;;;15.30;;
15816;SDS011;8009;50.070;8.232;2023-04-30T01:21:36;17.93;;;17.23;;
15816;SDS011;8009;50.070;8.232;2023-04-30T01:27:31;17.63;;;16.93;;
15816;SDS011;8009;50.070;8.232;2023-04-30T01:33:37;17.27;;;16.63;;
15816;SDS011;8009;50.070;8.232;2023-04-30T01:39:02;16.70;;;16.10;;
15816;SDS011;8009;50.070;8.232;2023-04-30T01:41:42;19.77;;;18.97;;
15816;SDS011;8009;50.070;8.232;2023-04-30T01:44:31;18.83;;;18.13;;
15816;SDS011;8009;50.070;8.232;2023-04-30T01:47:15;14.73;;;14.20;;
15816;SDS011;8009;50.070;8.232;2023-04-30T01:49:54;16.93;;;16.33;;
15816;SDS011;8009;50.070;8.232;2023-04-30T01:52:30;15.23;;;14.63;;
15816;SDS011;8009;50.070;8.232;2023-04-30T01:55:07;18.27;;;17.57;;
15816;SDS011;8009;50.070;8.232;2023-04-30T01:57:40;16.30;;;15.70;;
15816;SDS011;8009;50.070;8.232;2023-04-30T02:03:17;16.30;;;15.70;;
15816;SDS011;8009;50.070;8.232;2023-04-30T02:11:46;15.43;;;14.83;;
15816;SDS011;8009;50.070;8.232;2023-04-30T02:14:15;18.57;;;17.87;;
15816;SDS011;8009;50.070;8.232;2023-04-30T02:16:46;16.17;;;15.57;;
15816;SDS011;8009;50.070;8.232;2023-04-30T02:19:14;15.57;;;14.97;;
15816;SDS011;8009;50.070;8.232;2023-04-30T02:21:42;14.97;;;14.40;;
15816;SDS011;8009;50.070;8.232;2023-04-30T02:27:05;18.42;;;17.73;;
15816;SDS011;8009;50.070;8.232;2023-04-30T02:29:33;17.60;;;16.93;;
15816;SDS011;8009;50.070;8.232;2023-04-30T02:32:04;17.40;;;16.70;;
15816;SDS011;8009;50.070;8.232;2023-04-30T03:03:21;16.00;;;15.40;;
15816;SDS011;8009;50.070;8.232;2023-04-30T03:12:11;14.80;;;14.20;;
15816;SDS011;8009;50.070;8.232;2023-04-30T03:21:04;16.00;;;15.40;;
15816;SDS011;8009;50.070;8.232;2023-04-30T03:23:33;13.10;;;12.60;;
15816;SDS011;8009;50.070;8.232;2023-04-30T03:26:02;16.33;;;15.73;;
15816;SDS011;8009;50.070;8.232;2023-04-30T03:28:32;12.13;;;11.67;;
15816;SDS011;8009;50.070;8.232;2023-04-30T03:31:00;15.07;;;14.47;;
15816;SDS011;8009;50.070;8.232;2023-04-30T03:40:10;13.93;;;13.33;;
15816;SDS011;8009;50.070;8.232;2023-04-30T04:02:55;15.00;;;14.43;;
15816;SDS011;8009;50.070;8.232;2023-04-30T04:05:24;15.30;;;14.70;;
15816;SDS011;8009;50.070;8.232;2023-04-30T04:07:53;13.40;;;12.90;;
15816;SDS011;8009;50.070;8.232;2023-04-30T04:10:21;14.13;;;13.63;;
15816;SDS011;8009;50.070;8.232;2023-04-30T04:12:49;14.13;;;13.63;;
15816;SDS011;8009;50.070;8.232;2023-04-30T04:15:18;16.37;;;15.77;;
15816;SDS011;8009;50.070;8.232;2023-04-30T04:17:46;18.23;;;17.53;;
15816;SDS011;8009;50.070;8.232;2023-04-30T04:20:17;16.10;;;15.50;;
15816;SDS011;8009;50.070;8.232;2023-04-30T04:22:46;16.77;;;16.13;;
15816;SDS011;8009;50.070;8.232;2023-04-30T04:25:14;18.40;;;17.70;;
15816;SDS011;8009;50.070;8.232;2023-04-30T04:27:43;15.77;;;15.07;;
15816;SDS011;8009;50.070;8.232;2023-04-30T04:30:11;16.10;;;15.50;;
15816;SDS011;8009;50.070;8.232;2023-04-30T04:32:40;15.53;;;14.93;;
15816;SDS011;8009;50.070;8.232;2023-04-30T04:35:10;17.53;;;16.83;;
15816;SDS011;8009;50.070;8.232;2023-04-30T04:37:41;14.13;;;13.63;;
15816;SDS011;8009;50.070;8.232;2023-04-30T04:40:09;15.77;;;15.17;;
15816;SDS011;8009;50.070;8.232;2023-04-30T04:42:39;17.63;;;16.93;;
15816;SDS011;8009;50.070;8.232;2023-04-30T04:45:07;20.60;;;19.80;;
15816;SDS011;8009;50.070;8.232;2023-04-30T04:47:37;17.27;;;16.60;;
15816;SDS011;8009;50.070;8.232;2023-04-30T04:50:06;16.87;;;16.23;;
15816;SDS011;8009;50.070;8.232;2023-04-30T04:52:34;15.33;;;14.73;;
15816;SDS011;8009;50.070;8.232;2023-04-30T04:55:06;16.20;;;15.60;;
15816;SDS011;8009;50.070;8.232;2023-04-30T04:57:36;14.93;;;14.33;;
15816;SDS011;8009;50.070;8.232;2023-04-30T05:00:07;15.77;;;15.17;;
15816;SDS011;8009;50.070;8.232;2023-04-30T05:02:36;15.57;;;14.97;;
15816;SDS011;8009;50.070;8.232;2023-04-30T05:05:05;15.30;;;14.70;;
15816;SDS011;8009;50.070;8.232;2023-04-30T05:07:35;16.33;;;15.73;;
15816;SDS011;8009;50.070;8.232;2023-04-30T05:10:06;15.60;;;15.00;;
15816;SDS011;8009;50.070;8.232;2023-04-30T05:12:38;19.10;;;18.37;;
15816;SDS011;8009;50.070;8.232;2023-04-30T05:15:07;14.70;;;14.17;;
15816;SDS011;8009;50.070;8.232;2023-04-30T05:17:36;15.57;;;14.97;;
15816;SDS011;8009;50.070;8.232;2023-04-30T05:20:05;17.17;;;16.53;;
15816;SDS011;8009;50.070;8.232;2023-04-30T05:22:34;15.83;;;15.23;;
15816;SDS011;8009;50.070;8.232;2023-04-30T05:25:03;16.93;;;16.30;;
15816;SDS011;8009;50.070;8.232;2023-04-30T05:27:34;15.97;;;15.37;;
15816;SDS011;8009;50.070;8.232;2023-04-30T05:30:03;15.47;;;14.87;;
15816;SDS011;8009;50.070;8.232;2023-04-30T05:32:33;18.23;;;17.53;;
15816;SDS011;8009;50.070;8.232;2023-04-30T05:35:02;15.83;;;15.23;;
15816;SDS011;8009;50.070;8.232;2023-04-30T05:37:30;15.07;;;14.47;;
15816;SDS011;8009;50.070;8.232;2023-04-30T05:39:59;16.17;;;15.57;;
15816;SDS011;8009;50.070;8.232;2023-04-30T05:42:30;14.67;;;14.13;;
15816;SDS011;8009;50.070;8.232;2023-04-30T05:44:58;14.87;;;14.33;;
15816;SDS011;8009;50.070;8.232;2023-04-30T05:47:26;15.63;;;15.03;;
15816;SDS011;8009;50.070;8.232;2023-04-30T05:49:55;18.13;;;17.43;;
15816;SDS011;8009;50.070;8.232;2023-04-30T05:52:23;16.77;;;16.17;;
15816;SDS011;8009;50.070;8.232;2023-04-30T05:54:51;17.77;;;17.07;;
15816;SDS011;8009;50.070;8.232;2023-04-30T05:57:20;17.53;;;16.83;;
15816;SDS011;8009;50.070;8.232;2023-04-30T05:59:51;16.23;;;15.63;;
15816;SDS011;8009;50.070;8.232;2023-04-30T06:02:20;16.80;;;16.20;;
15816;SDS011;8009;50.070;8.232;2023-04-30T06:04:48;20.67;;;19.87;;
15816;SDS011;8009;50.070;8.232;2023-04-30T06:07:19;22.30;;;21.43;;
15816;SDS011;8009;50.070;8.232;2023-04-30T06:09:48;22.53;;;21.63;;
15816;SDS011;8009;50.070;8.232;2023-04-30T06:12:16;20.57;;;19.77;;
15816;SDS011;8009;50.070;8.232;2023-04-30T06:14:46;16.27;;;15.67;;
15816;SDS011;8009;50.070;8.232;2023-04-30T06:17:17;16.53;;;15.93;;
15816;SDS011;8009;50.070;8.232;2023-04-30T06:19:48;17.00;;;16.40;;
15816;SDS011;8009;50.070;8.232;2023-04-30T06:22:16;15.80;;;15.20;;
15816;SDS011;8009;50.070;8.232;2023-04-30T06:24:44;15.23;;;14.63;;
15816;SDS011;8009;50.070;8.232;2023-04-30T06:27:12;16.50;;;15.90;;
15816;SDS011;8009;50.070;8.232;2023-04-30T06:29:41;17.97;;;17.30;;
15816;SDS011;8009;50.070;8.232;2023-04-30T06:32:09;22.30;;;21.43;;
15816;SDS011;8009;50.070;8.232;2023-04-30T06:37:11;22.37;;;21.53;;
15816;SDS011;8009;50.070;8.232;2023-04-30T06:39:40;22.87;;;21.97;;
15816;SDS011;8009;50.070;8.232;2023-04-30T06:44:44;19.27;;;18.57;;
15816;SDS011;8009;50.070;8.232;2023-04-30T06:47:12;18.77;;;18.07;;
15816;SDS011;8009;50.070;8.232;2023-04-30T06:49:41;16.40;;;15.80;;
15816;SDS011;8009;50.070;8.232;2023-04-30T06:52:12;20.77;;;19.97;;
15816;SDS011;8009;50.070;8.232;2023-04-30T06:54:40;18.03;;;17.33;;
15816;SDS011;8009;50.070;8.232;2023-04-30T06:57:09;16.87;;;16.27;;
15816;SDS011;8009;50.070;8.232;2023-04-30T06:59:37;19.03;;;18.33;;
15816;SDS011;8009;50.070;8.232;2023-04-30T07:02:06;19.17;;;18.47;;
15816;SDS011;8009;50.070;8.232;2023-04-30T07:04:34;19.67;;;18.93;;
15816;SDS011;8009;50.070;8.232;2023-04-30T07:07:02;17.00;;;16.40;;
15816;SDS011;8009;50.070;8.232;2023-04-30T07:09:34;17.60;;;16.90;;
15816;SDS011;8009;50.070;8.232;2023-04-30T07:12:02;17.93;;;17.23;;
15816;SDS011;8009;50.070;8.232;2023-04-30T07:14:30;18.77;;;18.07;;
15816;SDS011;8009;50.070;8.232;2023-04-30T07:16:59;20.23;;;19.43;;
15816;SDS011;8009;50.070;8.232;2023-04-30T07:19:27;18.33;;;17.63;;
15816;SDS011;8009;50.070;8.232;2023-04-30T07:21:56;20.37;;;19.57;;
15816;SDS011;8009;50.070;8.232;2023-04-30T07:24:25;15.53;;;14.93;;
15816;SDS011;8009;50.070;8.232;2023-04-30T07:26:56;16.87;;;16.27;;
15816;SDS011;8009;50.070;8.232;2023-04-30T07:29:27;18.20;;;17.50;;
15816;SDS011;8009;50.070;8.232;2023-04-30T07:31:56;22.77;;;21.90;;
15816;SDS011;8009;50.070;8.232;2023-04-30T07:34:24;29.70;;;28.57;;
15816;SDS011;8009;50.070;8.232;2023-04-30T07:36:53;29.57;;;28.43;;
15816;SDS011;8009;50.070;8.232;2023-04-30T07:39:21;22.93;;;22.03;;
15816;SDS011;8009;50.070;8.232;2023-04-30T07:41:49;21.67;;;20.87;;
15816;SDS011;8009;50.070;8.232;2023-04-30T07:44:20;21.43;;;20.63;;
15816;SDS011;8009;50.070;8.232;2023-04-30T07:46:48;28.13;;;27.03;;
15816;SDS011;8009;50.070;8.232;2023-04-30T07:49:17;28.60;;;27.50;;
15816;SDS011;8009;50.070;8.232;2023-04-30T07:51:45;32.87;;;31.57;;
15816;SDS011;8009;50.070;8.232;2023-04-30T07:54:15;46.97;;;45.13;;
15816;SDS011;8009;50.070;8.232;2023-04-30T07:56:43;33.40;;;32.10;;
15816;SDS011;8009;50.070;8.232;2023-04-30T07:59:12;27.37;;;26.30;;
15816;SDS011;8009;50.070;8.232;2023-04-30T08:01:44;24.33;;;23.43;;
15816;SDS011;8009;50.070;8.232;2023-04-30T08:04:12;23.73;;;22.83;;
15816;SDS011;8009;50.070;8.232;2023-04-30T08:06:40;28.23;;;27.13;;
15816;SDS011;8009;50.070;8.232;2023-04-30T08:09:09;29.73;;;28.57;;
15816;SDS011;8009;50.070;8.232;2023-04-30T08:11:37;25.50;;;24.50;;
15816;SDS011;8009;50.070;8.232;2023-04-30T08:14:05;25.90;;;24.90;;
15816;SDS011;8009;50.070;8.232;2023-04-30T08:16:34;24.27;;;23.33;;
15816;SDS011;8009;50.070;8.232;2023-04-30T08:19:05;43.57;;;41.57;;
15816;SDS011;8009;50.070;8.232;2023-04-30T08:21:33;25.07;;;24.13;;
15816;SDS011;8009;50.070;8.232;2023-04-30T08:24:02;30.23;;;29.03;;
15816;SDS011;8009;50.070;8.232;2023-04-30T08:26:30;36.37;;;34.93;;
15816;SDS011;8009;50.070;8.232;2023-04-30T08:28:59;35.63;;;34.23;;
15816;SDS011;8009;50.070;8.232;2023-04-30T08:31:27;36.53;;;35.13;;
15816;SDS011;8009;50.070;8.232;2023-04-30T08:33:55;29.77;;;28.63;;
15816;SDS011;8009;50.070;8.232;2023-04-30T08:36:26;26.53;;;25.53;;
15816;SDS011;8009;50.070;8.232;2023-04-30T08:38:54;21.30;;;20.50;;
15816;SDS011;8009;50.070;8.232;2023-04-30T08:41:25;20.40;;;19.60;;
15816;SDS011;8009;50.070;8.232;2023-04-30T08:44:00;20.23;;;19.43;;
15816;SDS011;8009;50.070;8.232;2023-04-30T08:46:30;20.83;;;20.03;;
15816;SDS011;8009;50.070;8.232;2023-04-30T08:48:59;24.73;;;23.73;;
15816;SDS011;8009;50.070;8.232;2023-04-30T08:51:31;27.13;;;26.10;;
15816;SDS011;8009;50.070;8.232;2023-04-30T08:54:01;22.23;;;21.43;;
15816;SDS011;8009;50.070;8.232;2023-04-30T08:56:31;20.40;;;19.60;;
15816;SDS011;8009;50.070;8.232;2023-04-30T08:59:00;15.37;;;14.77;;
15816;SDS011;8009;50.070;8.232;2023-04-30T09:01:29;16.73;;;16.13;;
15816;SDS011;8009;50.070;8.232;2023-04-30T09:03:57;17.63;;;16.97;;
15816;SDS011;8009;50.070;8.232;2023-04-30T09:06:26;16.43;;;15.83;;
15816;SDS011;8009;50.070;8.232;2023-04-30T09:08:58;15.93;;;15.33;;
15816;SDS011;8009;50.070;8.232;2023-04-30T09:11:36;13.37;;;12.87;;
15816;SDS011;8009;50.070;8.232;2023-04-30T09:14:04;24.57;;;23.63;;
15816;SDS011;8009;50.070;8.232;2023-04-30T09:16:44;24.00;;;23.10;;
15816;SDS011;8009;50.070;8.232;2023-04-30T09:19:23;26.57;;;25.57;;
15816;SDS011;8009;50.070;8.232;2023-04-30T09:21:52;18.57;;;17.87;;
15816;SDS011;8009;50.070;8.232;2023-04-30T09:24:23;19.23;;;18.53;;
15816;SDS011;8009;50.070;8.232;2023-04-30T09:26:52;14.13;;;13.63;;
15816;SDS011;8009;50.070;8.232;2023-04-30T09:29:20;13.60;;;13.10;;
15816;SDS011;8009;50.070;8.232;2023-04-30T09:31:49;12.93;;;12.43;;
15816;SDS011;8009;50.070;8.232;2023-04-30T09:34:17;15.93;;;15.33;;
15816;SDS011;8009;50.070;8.232;2023-04-30T09:37:00;15.13;;;14.53;;
15816;SDS011;8009;50.070;8.232;2023-04-30T09:39:31;14.87;;;14.33;;
15816;SDS011;8009;50.070;8.232;2023-04-30T09:42:07;13.13;;;12.63;;
15816;SDS011;8009;50.070;8.232;2023-04-30T09:44:37;13.97;;;13.47;;
15816;SDS011;8009;50.070;8.232;2023-04-30T09:47:09;13.50;;;13.00;;
15816;SDS011;8009;50.070;8.232;2023-04-30T09:49:40;13.63;;;13.13;;
15816;SDS011;8009;50.070;8.232;2023-04-30T09:52:09;15.53;;;14.93;;
15816;SDS011;8009;50.070;8.232;2023-04-30T09:54:42;16.63;;;16.03;;
15816;SDS011;8009;50.070;8.232;2023-04-30T09:57:12;13.27;;;12.77;;
15816;SDS011;8009;50.070;8.232;2023-04-30T09:59:42;17.73;;;17.07;;
15816;SDS011;8009;50.070;8.232;2023-04-30T10:02:12;14.33;;;13.83;;
15816;SDS011;8009;50.070;8.232;2023-04-30T10:04:43;13.70;;;13.20;;
15816;SDS011;8009;50.070;8.232;2023-04-30T10:07:16;11.17;;;10.77;;
15816;SDS011;8009;50.070;8.232;2023-04-30T10:09:50;15.83;;;15.23;;
15816;SDS011;8009;50.070;8.232;2023-04-30T10:12:25;24.60;;;23.67;;
15816;SDS011;8009;50.070;8.232;2023-04-30T10:15:00;16.20;;;15.60;;
15816;SDS011;8009;50.070;8.232;2023-04-30T10:17:37;20.73;;;19.93;;
15816;SDS011;8009;50.070;8.232;2023-04-30T10:20:08;34.73;;;33.40;;
15816;SDS011;8009;50.070;8.232;2023-04-30T10:22:38;25.07;;;24.10;;
15816;SDS011;8009;50.070;8.232;2023-04-30T10:25:11;22.13;;;21.30;;
15816;SDS011;8009;50.070;8.232;2023-04-30T10:27:40;42.73;;;41.03;;
15816;SDS011;8009;50.070;8.232;2023-04-30T10:30:10;40.33;;;38.73;;
15816;SDS011;8009;50.070;8.232;2023-04-30T10:32:45;30.77;;;29.57;;
15816;SDS011;8009;50.070;8.232;2023-04-30T10:35:27;13.90;;;13.40;;
15816;SDS011;8009;50.070;8.232;2023-04-30T10:38:02;15.30;;;14.70;;
15816;SDS011;8009;50.070;8.232;2023-04-30T10:40:39;59.20;;;56.80;;
15816;SDS011;8009;50.070;8.232;2023-04-30T10:43:09;31.80;;;30.50;;
15816;SDS011;8009;50.070;8.232;2023-04-30T10:45:40;39.97;;;38.40;;
15816;SDS011;8009;50.070;8.232;2023-04-30T10:48:10;34.87;;;33.50;;
15816;SDS011;8009;50.070;8.232;2023-04-30T10:50:48;45.77;;;43.93;;
15816;SDS011;8009;50.070;8.232;2023-04-30T10:53:18;27.73;;;26.67;;
15816;SDS011;8009;50.070;8.232;2023-04-30T10:55:56;10.97;;;10.57;;
15816;SDS011;8009;50.070;8.232;2023-04-30T10:58:31;12.47;;;12.00;;
15816;SDS011;8009;50.070;8.232;2023-04-30T11:01:01;20.40;;;19.60;;
15816;SDS011;8009;50.070;8.232;2023-04-30T11:03:35;21.27;;;20.47;;
15816;SDS011;8009;50.070;8.232;2023-04-30T11:06:07;12.20;;;11.80;;
15816;SDS011;8009;50.070;8.232;2023-04-30T11:08:38;12.20;;;11.80;;
15816;SDS011;8009;50.070;8.232;2023-04-30T11:11:16;15.57;;;14.97;;
15816;SDS011;8009;50.070;8.232;2023-04-30T11:13:45;21.10;;;20.30;;
15816;SDS011;8009;50.070;8.232;2023-04-30T11:16:15;30.17;;;28.97;;
15816;SDS011;8009;50.070;8.232;2023-04-30T11:18:44;31.80;;;30.53;;
15816;SDS011;8009;50.070;8.232;2023-04-30T11:21:13;31.07;;;29.87;;
15816;SDS011;8009;50.070;8.232;2023-04-30T11:23:42;31.23;;;30.03;;
15816;SDS011;8009;50.070;8.232;2023-04-30T11:26:13;25.97;;;24.97;;
15816;SDS011;8009;50.070;8.232;2023-04-30T11:28:49;22.47;;;21.60;;
15816;SDS011;8009;50.070;8.232;2023-04-30T11:31:19;13.37;;;12.87;;
15816;SDS011;8009;50.070;8.232;2023-04-30T11:33:47;12.70;;;12.20;;
15816;SDS011;8009;50.070;8.232;2023-04-30T11:36:16;11.73;;;11.33;;
15816;SDS011;8009;50.070;8.232;2023-04-30T11:38:46;12.83;;;12.33;;
15816;SDS011;8009;50.070;8.232;2023-04-30T11:41:17;12.80;;;12.30;;
15816;SDS011;8009;50.070;8.232;2023-04-30T11:43:51;12.50;;;12.00;;
15816;SDS011;8009;50.070;8.232;2023-04-30T11:46:19;12.17;;;11.77;;
15816;SDS011;8009;50.070;8.232;2023-04-30T11:48:57;11.83;;;11.43;;
15816;SDS011;8009;50.070;8.232;2023-04-30T11:51:28;14.00;;;13.50;;
15816;SDS011;8009;50.070;8.232;2023-04-30T11:56:36;28.77;;;27.67;;
15816;SDS011;8009;50.070;8.232;2023-04-30T11:59:09;22.43;;;21.57;;
15816;SDS011;8009;50.070;8.232;2023-04-30T12:01:37;16.75;;;16.15;;
15816;SDS011;8009;50.070;8.232;2023-04-30T12:04:06;15.33;;;14.73;;
15816;SDS011;8009;50.070;8.232;2023-04-30T12:06:37;30.13;;;28.93;;
15816;SDS011;8009;50.070;8.232;2023-04-30T12:09:06;27.80;;;26.70;;
15816;SDS011;8009;50.070;8.232;2023-04-30T12:11:38;28.50;;;27.40;;
15816;SDS011;8009;50.070;8.232;2023-04-30T12:14:07;34.87;;;33.47;;
15816;SDS011;8009;50.070;8.232;2023-04-30T12:16:39;28.77;;;27.67;;
15816;SDS011;8009;50.070;8.232;2023-04-30T12:19:09;32.20;;;30.97;;
15816;SDS011;8009;50.070;8.232;2023-04-30T12:21:38;34.80;;;33.40;;
15816;SDS011;8009;50.070;8.232;2023-04-30T12:24:09;29.70;;;28.57;;
15816;SDS011;8009;50.070;8.232;2023-04-30T12:26:40;23.07;;;22.17;;
15816;SDS011;8009;50.070;8.232;2023-04-30T12:29:10;30.50;;;29.30;;
15816;SDS011;8009;50.070;8.232;2023-04-30T12:31:41;38.53;;;37.03;;
15816;SDS011;8009;50.070;8.232;2023-04-30T12:34:11;36.33;;;34.93;;
15816;SDS011;8009;50.070;8.232;2023-04-30T12:36:41;35.43;;;34.07;;
15816;SDS011;8009;50.070;8.232;2023-04-30T12:39:10;33.27;;;31.97;;
15816;SDS011;8009;50.070;8.232;2023-04-30T12:41:43;33.07;;;31.77;;
15816;SDS011;8009;50.070;8.232;2023-04-30T12:44:16;23.13;;;22.23;;
15816;SDS011;8009;50.070;8.232;2023-04-30T12:46:47;23.80;;;22.90;;
15816;SDS011;8009;50.070;8.232;2023-04-30T12:49:23;35.80;;;34.40;;
15816;SDS011;8009;50.070;8.232;2023-04-30T12:51:57;36.20;;;34.70;;
15816;SDS011;8009;50.070;8.232;2023-04-30T12:54:28;30.43;;;29.23;;
15816;SDS011;8009;50.070;8.232;2023-04-30T12:57:02;24.87;;;23.90;;
15816;SDS011;8009;50.070;8.232;2023-04-30T12:59:32;43.13;;;41.42;;
15816;SDS011;8009;50.070;8.232;2023-04-30T13:02:05;26.47;;;25.47;;
15816;SDS011;8009;50.070;8.232;2023-04-30T13:04:35;33.43;;;32.13;;
15816;SDS011;8009;50.070;8.232;2023-04-30T13:07:04;28.73;;;27.63;;
15816;SDS011;8009;50.070;8.232;2023-04-30T13:09:33;24.97;;;24.00;;
15816;SDS011;8009;50.070;8.232;2023-04-30T13:12:04;28.00;;;26.90;;
15816;SDS011;8009;50.070;8.232;2023-04-30T13:14:33;26.07;;;25.07;;
15816;SDS011;8009;50.070;8.232;2023-04-30T13:17:01;33.97;;;32.67;;
15816;SDS011;8009;50.070;8.232;2023-04-30T13:19:31;31.17;;;29.97;;
15816;SDS011;8009;50.070;8.232;2023-04-30T13:22:00;31.80;;;30.60;;
15816;SDS011;8009;50.070;8.232;2023-04-30T13:24:28;29.80;;;28.65;;
15816;SDS011;8009;50.070;8.232;2023-04-30T13:26:57;13.63;;;13.13;;
15816;SDS011;8009;50.070;8.232;2023-04-30T13:29:29;13.33;;;12.83;;
15816;SDS011;8009;50.070;8.232;2023-04-30T13:31:58;13.53;;;13.03;;
15816;SDS011;8009;50.070;8.232;2023-04-30T13:34:26;23.13;;;22.10;;
15816;SDS011;8009;50.070;8.232;2023-04-30T13:37:07;11.67;;;11.27;;
15816;SDS011;8009;50.070;8.232;2023-04-30T13:39:36;11.70;;;11.30;;
15816;SDS011;8009;50.070;8.232;2023-04-30T13:42:04;11.87;;;11.47;;
15816;SDS011;8009;50.070;8.232;2023-04-30T13:44:35;13.10;;;12.60;;
15816;SDS011;8009;50.070;8.232;2023-04-30T13:47:04;12.50;;;12.00;;
15816;SDS011;8009;50.070;8.232;2023-04-30T13:49:34;12.30;;;11.80;;
15816;SDS011;8009;50.070;8.232;2023-04-30T13:52:03;11.77;;;11.37;;
15816;SDS011;8009;50.070;8.232;2023-04-30T13:54:31;11.13;;;10.73;;
15816;SDS011;8009;50.070;8.232;2023-04-30T13:56:59;10.53;;;10.13;;
15816;SDS011;8009;50.070;8.232;2023-04-30T13:59:28;12.43;;;11.93;;
15816;SDS011;8009;50.070;8.232;2023-04-30T14:01:59;10.53;;;10.13;;
15816;SDS011;8009;50.070;8.232;2023-04-30T14:04:27;12.10;;;11.70;;
15816;SDS011;8009;50.070;8.232;2023-04-30T14:06:58;12.77;;;12.27;;
15816;SDS011;8009;50.070;8.232;2023-04-30T14:09:26;12.93;;;12.43;;
15816;SDS011;8009;50.070;8.232;2023-04-30T14:11:55;12.07;;;11.67;;
15816;SDS011;8009;50.070;8.232;2023-04-30T14:14:24;13.80;;;13.30;;
15816;SDS011;8009;50.070;8.232;2023-04-30T14:16:53;11.57;;;11.17;;
15816;SDS011;8009;50.070;8.232;2023-04-30T14:19:24;12.93;;;12.43;;
15816;SDS011;8009;50.070;8.232;2023-04-30T14:21:52;13.40;;;12.90;;
15816;SDS011;8009;50.070;8.232;2023-04-30T14:24:21;12.47;;;12.00;;
15816;SDS011;8009;50.070;8.232;2023-04-30T14:26:50;12.23;;;11.77;;
15816;SDS011;8009;50.070;8.232;2023-04-30T14:29:18;12.27;;;11.87;;
15816;SDS011;8009;50.070;8.232;2023-04-30T14:31:46;11.63;;;11.23;;
15816;SDS011;8009;50.070;8.232;2023-04-30T14:34:17;11.93;;;11.53;;
15816;SDS011;8009;50.070;8.232;2023-04-30T14:36:51;11.63;;;11.23;;
15816;SDS011;8009;50.070;8.232;2023-04-30T14:39:20;11.50;;;11.10;;
15816;SDS011;8009;50.070;8.232;2023-04-30T14:41:52;11.60;;;11.20;;
15816;SDS011;8009;50.070;8.232;2023-04-30T14:44:21;12.23;;;11.80;;
15816;SDS011;8009;50.070;8.232;2023-04-30T14:46:51;12.80;;;12.30;;
15816;SDS011;8009;50.070;8.232;2023-04-30T14:49:20;12.20;;;11.80;;
15816;SDS011;8009;50.070;8.232;2023-04-30T14:51:51;11.83;;;11.43;;
15816;SDS011;8009;50.070;8.232;2023-04-30T14:54:19;11.37;;;10.97;;
15816;SDS011;8009;50.070;8.232;2023-04-30T14:56:48;12.57;;;12.07;;
15816;SDS011;8009;50.070;8.232;2023-04-30T14:59:18;13.00;;;12.50;;
15816;SDS011;8009;50.070;8.232;2023-04-30T15:01:47;12.93;;;12.43;;
15816;SDS011;8009;50.070;8.232;2023-04-30T15:04:15;13.20;;;12.70;;
15816;SDS011;8009;50.070;8.232;2023-04-30T15:06:43;13.17;;;12.67;;
15816;SDS011;8009;50.070;8.232;2023-04-30T15:09:14;14.13;;;13.63;;
15816;SDS011;8009;50.070;8.232;2023-04-30T15:11:45;11.77;;;11.37;;
15816;SDS011;8009;50.070;8.232;2023-04-30T15:14:13;13.63;;;13.13;;
15816;SDS011;8009;50.070;8.232;2023-04-30T15:16:41;15.50;;;14.90;;
15816;SDS011;8009;50.070;8.232;2023-04-30T15:19:10;14.43;;;13.93;;
15816;SDS011;8009;50.070;8.232;2023-04-30T15:21:39;12.70;;;12.20;;
15816;SDS011;8009;50.070;8.232;2023-04-30T15:24:07;13.07;;;12.57;;
15816;SDS011;8009;50.070;8.232;2023-04-30T15:26:38;13.57;;;13.07;;
15816;SDS011;8009;50.070;8.232;2023-04-30T15:29:06;14.37;;;13.87;;
15816;SDS011;8009;50.070;8.232;2023-04-30T15:31:35;15.73;;;15.13;;
15816;SDS011;8009;50.070;8.232;2023-04-30T15:34:03;14.57;;;14.07;;
15816;SDS011;8009;50.070;8.232;2023-04-30T15:36:31;15.23;;;14.63;;
15816;SDS011;8009;50.070;8.232;2023-04-30T15:39:00;19.87;;;19.10;;
15816;SDS011;8009;50.070;8.232;2023-04-30T15:41:31;18.83;;;18.13;;
15816;SDS011;8009;50.070;8.232;2023-04-30T15:44:02;17.03;;;16.43;;
15816;SDS011;8009;50.070;8.232;2023-04-30T15:46:32;19.33;;;18.53;;
15816;SDS011;8009;50.070;8.232;2023-04-30T15:49:03;18.40;;;17.70;;
15816;SDS011;8009;50.070;8.232;2023-04-30T15:51:31;18.87;;;18.17;;
15816;SDS011;8009;50.070;8.232;2023-04-30T15:54:00;20.53;;;19.73;;
15816;SDS011;8009;50.070;8.232;2023-04-30T15:56:31;23.60;;;22.70;;
15816;SDS011;8009;50.070;8.232;2023-04-30T15:59:03;21.37;;;20.57;;
15816;SDS011;8009;50.070;8.232;2023-04-30T16:01:31;21.43;;;20.63;;
15816;SDS011;8009;50.070;8.232;2023-04-30T16:04:00;21.40;;;20.60;;
15816;SDS011;8009;50.070;8.232;2023-04-30T16:06:28;21.90;;;21.10;;
15816;SDS011;8009;50.070;8.232;2023-04-30T16:08:56;36.65;;;35.20;;
15816;SDS011;8009;50.070;8.232;2023-04-30T16:11:30;13.23;;;12.73;;
15816;SDS011;8009;50.070;8.232;2023-04-30T16:13:59;12.03;;;11.63;;
15816;SDS011;8009;50.070;8.232;2023-04-30T16:16:30;12.67;;;12.17;;
15816;SDS011;8009;50.070;8.232;2023-04-30T16:18:58;13.63;;;13.13;;
15816;SDS011;8009;50.070;8.232;2023-04-30T16:21:27;14.93;;;14.40;;
15816;SDS011;8009;50.070;8.232;2023-04-30T16:23:57;18.20;;;17.50;;
15816;SDS011;8009;50.070;8.232;2023-04-30T16:26:25;23.37;;;22.47;;
15816;SDS011;8009;50.070;8.232;2023-04-30T16:28:54;25.97;;;24.97;;
15816;SDS011;8009;50.070;8.232;2023-04-30T16:31:23;21.03;;;20.23;;
15816;SDS011;8009;50.070;8.232;2023-04-30T16:33:54;21.67;;;20.87;;
15816;SDS011;8009;50.070;8.232;2023-04-30T16:36:28;25.23;;;24.23;;
15816;SDS011;8009;50.070;8.232;2023-04-30T16:38:56;29.97;;;28.77;;
15816;SDS011;8009;50.070;8.232;2023-04-30T16:41:26;27.83;;;26.77;;
15816;SDS011;8009;50.070;8.232;2023-04-30T16:43:55;29.43;;;28.30;;
15816;SDS011;8009;50.070;8.232;2023-04-30T16:46:24;32.43;;;31.13;;
15816;SDS011;8009;50.070;8.232;2023-04-30T16:48:57;33.43;;;32.13;;
15816;SDS011;8009;50.070;8.232;2023-04-30T16:51:26;34.30;;;32.97;;
15816;SDS011;8009;50.070;8.232;2023-04-30T16:53:55;28.90;;;27.80;;
15816;SDS011;8009;50.070;8.232;2023-04-30T16:56:24;29.93;;;28.77;;
15816;SDS011;8009;50.070;8.232;2023-04-30T16:58:52;22.17;;;21.33;;
15816;SDS011;8009;50.070;8.232;2023-04-30T17:01:21;25.00;;;24.03;;
15816;SDS011;8009;50.070;8.232;2023-04-30T17:03:49;24.70;;;23.73;;